createdAt,value
2023-03-16T00:01:37.862Z,84.60
2023-03-16T00:04:06.201Z,84.30
2023-03-16T00:06:34.261Z,84.00
2023-03-16T00:09:02.221Z,85.70
2023-03-16T00:11:30.267Z,86.00
2023-03-16T00:13:58.693Z,85.20
2023-03-16T00:16:28.058Z,86.00
2023-03-16T00:18:56.046Z,86.10
2023-03-16T00:21:23.998Z,85.50
2023-03-16T00:23:53.431Z,84.70
2023-03-16T00:26:22.555Z,84.20
2023-03-16T00:28:54.336Z,83.20
2023-03-16T00:31:25.009Z,83.40
2023-03-16T00:33:54.400Z,85.70
2023-03-16T00:36:22.910Z,84.60
2023-03-16T00:38:51.334Z,82.70
2023-03-16T00:41:19.440Z,82.00
2023-03-16T00:43:49.002Z,85.20
2023-03-16T00:46:18.541Z,85.90
2023-03-16T00:48:48.281Z,84.80
2023-03-16T00:51:19.012Z,84.50
2023-03-16T00:53:48.018Z,84.50
2023-03-16T00:56:16.619Z,83.60
2023-03-16T00:58:45.504Z,83.80
2023-03-16T01:01:15.584Z,86.30
2023-03-16T01:03:43.756Z,87.00
2023-03-16T01:06:13.573Z,84.70
2023-03-16T01:08:42.961Z,84.40
2023-03-16T01:11:13.698Z,85.60
2023-03-16T01:13:41.930Z,85.20
2023-03-16T01:16:11.063Z,86.90
2023-03-16T01:18:39.111Z,87.80
2023-03-16T01:21:09.035Z,87.50
2023-03-16T01:23:37.426Z,87.00
2023-03-16T01:26:08.459Z,86.90
2023-03-16T01:28:36.669Z,84.80
2023-03-16T01:31:08.136Z,84.80
2023-03-16T01:33:37.006Z,85.70
2023-03-16T01:36:07.728Z,85.80
2023-03-16T01:38:36.605Z,85.30
2023-03-16T01:41:06.864Z,84.80
2023-03-16T01:43:38.737Z,86.00
2023-03-16T01:46:23.132Z,86.80
2023-03-16T01:49:02.052Z,86.10
2023-03-16T01:51:36.483Z,86.20
2023-03-16T01:54:08.821Z,87.10
2023-03-16T01:56:42.875Z,88.30
2023-03-16T01:59:15.694Z,87.80
2023-03-16T02:01:43.961Z,88.20
2023-03-16T02:04:23.104Z,88.10
2023-03-16T02:06:51.450Z,87.80
2023-03-16T02:09:20.432Z,87.90
2023-03-16T02:11:51.147Z,87.10
2023-03-16T02:14:19.299Z,87.10
2023-03-16T02:16:47.898Z,86.90
2023-03-16T02:19:21.166Z,87.50
2023-03-16T02:21:56.996Z,88.10
2023-03-16T02:24:27.009Z,89.00
2023-03-16T02:26:58.950Z,88.80
2023-03-16T02:29:54.258Z,88.10
2023-03-16T02:32:24.239Z,88.00
2023-03-16T02:34:52.254Z,88.10
2023-03-16T02:37:20.379Z,87.90
2023-03-16T02:39:48.544Z,87.90
2023-03-16T02:42:19.280Z,88.80
2023-03-16T02:44:51.456Z,89.00
2023-03-16T02:47:30.020Z,89.70
2023-03-16T02:49:57.988Z,90.00
2023-03-16T02:52:26.110Z,90.00
2023-03-16T02:54:54.076Z,90.00
2023-03-16T02:57:22.235Z,89.70
2023-03-16T02:59:50.346Z,89.60
2023-03-16T03:02:18.359Z,89.60
2023-03-16T03:04:47.670Z,89.00
2023-03-16T03:07:16.238Z,88.30
2023-03-16T03:09:44.498Z,88.10
2023-03-16T03:12:13.493Z,90.00
2023-03-16T03:14:41.599Z,90.60
2023-03-16T03:17:11.000Z,90.60
2023-03-16T03:19:38.969Z,90.60
2023-03-16T03:22:08.636Z,90.30
2023-03-16T03:24:36.972Z,90.50
2023-03-16T03:27:05.980Z,90.50
2023-03-16T03:29:35.405Z,90.60
2023-03-16T03:32:03.919Z,90.70
2023-03-16T03:34:32.467Z,90.50
2023-03-16T03:37:01.436Z,90.30
2023-03-16T03:39:30.809Z,90.10
2023-03-16T03:41:58.771Z,90.20
2023-03-16T03:44:27.072Z,90.30
2023-03-16T03:46:55.050Z,90.20
2023-03-16T03:49:23.024Z,90.10
2023-03-16T03:51:51.493Z,89.90
2023-03-16T03:54:19.548Z,90.10
2023-03-16T03:56:48.916Z,90.50
2023-03-16T03:59:16.902Z,91.00
2023-03-16T04:01:44.946Z,91.10
2023-03-16T04:04:12.944Z,90.80
2023-03-16T04:06:41.688Z,90.90
2023-03-16T04:09:09.968Z,90.80
2023-03-16T04:11:38.227Z,90.80
2023-03-16T04:14:07.765Z,90.80
2023-03-16T04:16:35.923Z,90.90
2023-03-16T04:19:04.375Z,91.00
2023-03-16T04:21:32.884Z,91.10
2023-03-16T04:24:03.989Z,91.30
2023-03-16T04:26:32.589Z,91.50
2023-03-16T04:29:00.692Z,91.50
2023-03-16T04:31:30.250Z,91.50
2023-03-16T04:33:58.266Z,91.20
2023-03-16T04:36:26.380Z,91.00
2023-03-16T04:38:54.348Z,91.30
2023-03-16T04:41:22.346Z,91.50
2023-03-16T04:43:50.351Z,90.40
2023-03-16T04:46:18.374Z,90.40
2023-03-16T04:48:47.749Z,90.40
2023-03-16T04:51:16.051Z,90.80
2023-03-16T04:53:44.718Z,91.30
2023-03-16T04:56:18.092Z,91.80
2023-03-16T04:58:46.824Z,91.60
2023-03-16T05:01:15.050Z,91.70
2023-03-16T05:03:43.658Z,91.30
2023-03-16T05:06:13.780Z,91.20
2023-03-16T05:08:41.774Z,91.30
2023-03-16T05:11:10.206Z,91.60
2023-03-16T05:13:38.225Z,91.90
2023-03-16T05:16:07.406Z,92.00
2023-03-16T05:18:35.432Z,91.80
2023-03-16T05:21:03.405Z,91.70
2023-03-16T05:23:32.782Z,91.60
2023-03-16T05:26:01.214Z,92.00
2023-03-16T05:28:29.646Z,91.90
2023-03-16T05:30:57.676Z,91.70
2023-03-16T05:33:25.693Z,91.30
2023-03-16T05:35:53.723Z,91.50
2023-03-16T05:38:23.115Z,91.50
2023-03-16T05:40:53.224Z,91.50
2023-03-16T05:43:21.759Z,91.40
2023-03-16T05:45:50.132Z,91.30
2023-03-16T05:48:18.177Z,91.10
2023-03-16T05:50:46.173Z,90.90
2023-03-16T05:53:15.412Z,91.20
2023-03-16T05:55:43.410Z,91.60
2023-03-16T05:58:12.772Z,91.60
2023-03-16T06:00:40.932Z,91.40
2023-03-16T06:03:08.963Z,91.30
2023-03-16T06:05:36.937Z,91.30
2023-03-16T06:08:05.233Z,90.90
2023-03-16T06:10:33.496Z,91.10
2023-03-16T06:13:01.452Z,90.70
2023-03-16T06:15:31.072Z,90.80
2023-03-16T06:17:59.107Z,91.00
2023-03-16T06:20:27.320Z,91.30
2023-03-16T06:22:55.513Z,91.80
2023-03-16T06:25:24.152Z,92.00
2023-03-16T06:27:52.097Z,91.80
2023-03-16T06:30:20.215Z,91.60
2023-03-16T06:32:50.170Z,91.60
2023-03-16T06:35:18.217Z,91.50
2023-03-16T06:37:46.258Z,91.30
2023-03-16T06:40:14.732Z,91.20
2023-03-16T06:42:43.447Z,91.40
2023-03-16T06:45:13.093Z,91.50
2023-03-16T06:47:41.415Z,91.50
2023-03-16T06:50:12.862Z,91.50
2023-03-16T06:52:41.628Z,91.30
2023-03-16T06:55:12.563Z,91.00
2023-03-16T06:57:40.578Z,90.80
2023-03-16T07:00:10.268Z,90.90
2023-03-16T07:02:40.508Z,91.00
2023-03-16T07:05:13.095Z,90.90
2023-03-16T07:07:42.819Z,90.90
2023-03-16T07:10:12.924Z,90.90
2023-03-16T07:12:42.287Z,90.70
2023-03-16T07:15:11.896Z,90.60
2023-03-16T07:17:40.024Z,90.60
2023-03-16T07:20:12.794Z,90.80
2023-03-16T07:22:41.722Z,90.90
2023-03-16T07:25:11.479Z,91.00
2023-03-16T07:27:41.393Z,91.30
2023-03-16T07:30:12.276Z,91.50
2023-03-16T07:32:40.296Z,91.50
2023-03-16T07:35:11.671Z,91.30
2023-03-16T07:37:39.888Z,91.40
2023-03-16T07:40:09.325Z,91.50
2023-03-16T07:42:38.253Z,91.30
2023-03-16T07:45:07.546Z,91.30
2023-03-16T07:47:35.838Z,91.00
2023-03-16T07:50:03.889Z,90.80
2023-03-16T07:52:35.864Z,90.80
2023-03-16T07:55:06.199Z,90.60
2023-03-16T07:57:34.151Z,90.80
2023-03-16T08:00:05.118Z,90.30
2023-03-16T08:02:33.674Z,90.10
2023-03-16T08:05:01.746Z,89.90
2023-03-16T08:07:29.717Z,89.60
2023-03-16T08:09:59.106Z,89.40
2023-03-16T08:12:27.168Z,89.10
2023-03-16T08:14:55.664Z,88.80
2023-03-16T08:17:23.726Z,88.20
2023-03-16T08:19:51.736Z,87.60
2023-03-16T08:22:19.702Z,87.30
2023-03-16T08:24:47.877Z,87.20
2023-03-16T08:27:19.639Z,86.70
2023-03-16T08:29:47.890Z,86.40
2023-03-16T08:32:15.826Z,85.30
2023-03-16T08:34:43.779Z,84.20
2023-03-16T08:37:12.476Z,83.80
2023-03-16T08:39:42.069Z,83.50
2023-03-16T08:42:10.622Z,81.90
2023-03-16T08:44:40.141Z,81.00
2023-03-16T08:47:08.788Z,81.50
2023-03-16T08:49:37.061Z,81.50
2023-03-16T08:52:05.686Z,80.90
2023-03-16T08:54:33.842Z,80.20
2023-03-16T08:57:01.843Z,79.80
2023-03-16T08:59:30.790Z,79.30
2023-03-16T09:02:00.659Z,78.40
2023-03-16T09:04:30.071Z,76.50
2023-03-16T09:07:08.553Z,76.10
2023-03-16T09:09:38.221Z,75.70
2023-03-16T09:12:07.166Z,76.50
2023-03-16T09:14:38.434Z,77.10
2023-03-16T09:17:08.887Z,75.70
2023-03-16T09:19:50.539Z,74.90
2023-03-16T09:22:19.642Z,73.70
2023-03-16T09:24:48.497Z,73.60
2023-03-16T09:27:16.836Z,72.70
2023-03-16T09:29:45.433Z,72.00
2023-03-16T09:32:15.462Z,72.10
2023-03-16T09:34:44.773Z,71.80
2023-03-16T09:37:12.818Z,71.30
2023-03-16T09:39:40.825Z,69.80
2023-03-16T09:42:18.046Z,68.90
2023-03-16T09:44:55.404Z,67.60
2023-03-16T09:47:30.577Z,69.40
2023-03-16T09:50:01.413Z,68.00
2023-03-16T09:52:36.339Z,67.50
2023-03-16T09:55:10.226Z,66.90
2023-03-16T09:57:42.906Z,64.60
2023-03-16T10:00:19.512Z,63.60
2023-03-16T10:03:15.611Z,64.20
2023-03-16T10:05:43.704Z,63.70
2023-03-16T10:08:16.920Z,64.70
2023-03-16T10:11:07.104Z,64.20
2023-03-16T10:13:41.669Z,64.60
2023-03-16T10:16:13.192Z,64.10
2023-03-16T10:18:46.431Z,62.70
2023-03-16T10:21:16.853Z,62.80
2023-03-16T10:23:46.487Z,61.80
2023-03-16T10:26:18.928Z,62.30
2023-03-16T10:28:48.028Z,61.80
2023-03-16T10:31:21.520Z,60.50
2023-03-16T10:33:55.729Z,59.20
2023-03-16T10:36:30.601Z,59.40
2023-03-16T10:39:00.467Z,57.10
2023-03-16T10:41:31.303Z,57.20
2023-03-16T10:44:06.375Z,57.60
2023-03-16T10:46:40.299Z,58.10
2023-03-16T10:49:23.174Z,58.60
2023-03-16T10:51:51.399Z,59.30
2023-03-16T10:54:30.806Z,58.70
2023-03-16T10:56:59.418Z,58.10
2023-03-16T10:59:32.149Z,57.20
2023-03-16T11:02:00.715Z,59.70
2023-03-16T11:04:34.109Z,59.40
2023-03-16T11:07:02.326Z,59.00
2023-03-16T11:09:34.765Z,58.30
2023-03-16T11:12:15.420Z,56.70
2023-03-16T11:14:46.768Z,56.10
2023-03-16T11:17:18.959Z,56.10
2023-03-16T11:19:54.512Z,55.50
2023-03-16T11:22:25.310Z,54.30
2023-03-16T11:25:00.923Z,53.10
2023-03-16T11:27:37.920Z,52.30
2023-03-16T11:30:15.163Z,52.50
2023-03-16T11:32:53.417Z,52.70
2023-03-16T11:35:30.948Z,52.30
2023-03-16T11:38:08.266Z,53.50
2023-03-16T11:40:49.088Z,53.20
2023-03-16T11:43:47.989Z,53.20
2023-03-16T11:46:20.227Z,52.30
2023-03-16T11:49:17.785Z,51.40
2023-03-16T11:51:52.223Z,52.00
2023-03-16T11:54:45.067Z,53.10
2023-03-16T11:57:29.363Z,51.70
2023-03-16T12:00:06.624Z,51.60
2023-03-16T12:02:46.361Z,51.20
2023-03-16T12:05:39.782Z,51.20
2023-03-16T12:08:24.655Z,51.00
2023-03-16T12:10:58.664Z,51.00
2023-03-16T12:13:36.192Z,50.90
2023-03-16T12:16:08.750Z,49.90
2023-03-16T12:18:44.019Z,50.50
2023-03-16T12:21:16.188Z,50.40
2023-03-16T12:23:53.433Z,49.20
2023-03-16T12:26:25.127Z,49.50
2023-03-16T12:28:55.363Z,50.20
2023-03-16T12:31:31.975Z,49.80
2023-03-16T12:34:10.386Z,49.40
2023-03-16T12:37:08.214Z,49.20
2023-03-16T12:40:09.043Z,48.50
2023-03-16T12:42:49.773Z,49.00
2023-03-16T12:45:25.371Z,48.90
2023-03-16T12:48:02.059Z,48.80
2023-03-16T12:50:30.197Z,48.30
2023-03-16T12:52:58.234Z,48.10
2023-03-16T12:55:40.857Z,47.50
2023-03-16T12:58:11.721Z,47.80
2023-03-16T13:00:42.780Z,47.40
2023-03-16T13:03:16.585Z,47.60
2023-03-16T13:05:48.295Z,47.40
2023-03-16T13:08:18.485Z,47.80
2023-03-16T13:11:06.925Z,47.30
2023-03-16T13:13:35.696Z,47.60
2023-03-16T13:16:09.339Z,48.00
2023-03-16T13:18:41.711Z,48.30
2023-03-16T13:21:19.494Z,48.30
2023-03-16T13:23:57.538Z,48.90
2023-03-16T13:26:43.385Z,48.50
2023-03-16T13:29:23.924Z,49.30
2023-03-16T13:31:53.129Z,48.60
2023-03-16T13:34:24.536Z,47.90
2023-03-16T13:36:57.057Z,48.30
2023-03-16T13:39:28.428Z,48.00
2023-03-16T13:42:00.746Z,47.50
2023-03-16T13:44:30.564Z,47.50
2023-03-16T13:46:59.209Z,47.30
2023-03-16T13:49:27.615Z,47.80
2023-03-16T13:51:55.803Z,48.10
2023-03-16T13:54:28.055Z,47.70
2023-03-16T13:57:00.553Z,47.30
2023-03-16T13:59:29.142Z,47.80
2023-03-16T14:01:59.734Z,47.50
2023-03-16T14:04:30.824Z,47.10
2023-03-16T14:07:00.532Z,47.00
2023-03-16T14:09:30.679Z,46.60
2023-03-16T14:12:00.115Z,46.20
2023-03-16T14:14:31.991Z,46.00
2023-03-16T14:17:05.621Z,46.60
2023-03-16T14:19:44.388Z,46.40
2023-03-16T14:22:15.627Z,46.10
2023-03-16T14:24:45.275Z,45.20
2023-03-16T14:27:21.061Z,45.30
2023-03-16T14:30:01.675Z,45.50
2023-03-16T14:32:31.394Z,45.60
2023-03-16T14:35:13.002Z,45.80
2023-03-16T14:37:41.951Z,45.40
2023-03-16T14:40:24.399Z,45.20
2023-03-16T14:42:55.759Z,45.00
2023-03-16T14:45:23.892Z,45.40
2023-03-16T14:47:53.755Z,45.50
2023-03-16T14:50:26.331Z,45.60
2023-03-16T14:52:57.281Z,45.80
2023-03-16T14:55:25.918Z,46.10
2023-03-16T14:57:55.507Z,46.40
2023-03-16T15:00:25.536Z,47.00
2023-03-16T15:03:03.040Z,46.40
2023-03-16T15:05:36.012Z,47.00
2023-03-16T15:08:05.342Z,47.30
2023-03-16T15:10:36.092Z,47.50
2023-03-16T15:13:16.962Z,48.10
2023-03-16T15:15:47.214Z,49.00
2023-03-16T15:18:16.109Z,49.00
2023-03-16T15:20:45.609Z,50.00
2023-03-16T15:23:17.097Z,50.00
2023-03-16T15:25:47.549Z,50.70
2023-03-16T15:28:19.665Z,50.70
2023-03-16T15:30:49.409Z,50.90
2023-03-16T15:33:17.753Z,50.70
2023-03-16T15:35:46.952Z,51.00
2023-03-16T15:38:17.956Z,52.80
2023-03-16T15:40:48.024Z,54.10
2023-03-16T15:43:19.165Z,53.00
2023-03-16T15:45:48.279Z,52.50
2023-03-16T15:48:17.117Z,53.50
2023-03-16T15:50:53.319Z,52.70
2023-03-16T15:53:30.930Z,52.40
2023-03-16T15:56:03.239Z,53.80
2023-03-16T15:58:35.076Z,54.30
2023-03-16T16:01:04.768Z,54.70
2023-03-16T16:03:33.803Z,54.90
2023-03-16T16:06:02.018Z,55.80
2023-03-16T16:08:30.064Z,56.30
2023-03-16T16:10:58.284Z,56.40
2023-03-16T16:13:43.181Z,56.30
2023-03-16T16:16:15.987Z,57.40
2023-03-16T16:18:44.288Z,58.90
2023-03-16T16:21:17.823Z,58.60
2023-03-16T16:23:45.975Z,58.70
2023-03-16T16:26:27.907Z,58.70
2023-03-16T16:28:59.594Z,58.70
2023-03-16T16:31:31.363Z,58.90
2023-03-16T16:34:00.009Z,59.40
2023-03-16T16:36:32.347Z,59.70
2023-03-16T16:39:00.619Z,60.00
2023-03-16T16:41:30.745Z,60.10
2023-03-16T16:44:00.121Z,60.10
2023-03-16T16:46:31.554Z,61.00
2023-03-16T16:49:01.827Z,62.30
2023-03-16T16:51:30.837Z,62.30
2023-03-16T16:54:01.047Z,61.60
2023-03-16T16:56:31.944Z,63.40
2023-03-16T16:59:02.819Z,64.00
2023-03-16T17:01:34.656Z,64.10
2023-03-16T17:04:03.681Z,63.30
2023-03-16T17:06:31.809Z,63.50
2023-03-16T17:08:59.770Z,65.10
2023-03-16T17:11:30.468Z,65.00
2023-03-16T17:14:01.689Z,65.30
2023-03-16T17:16:33.209Z,64.40
2023-03-16T17:19:01.410Z,64.30
2023-03-16T17:21:32.140Z,64.80
2023-03-16T17:24:01.571Z,65.70
2023-03-16T17:26:32.995Z,66.60
2023-03-16T17:29:03.100Z,66.40
2023-03-16T17:31:36.434Z,66.00
2023-03-16T17:34:16.570Z,65.90
2023-03-16T17:36:44.774Z,66.80
2023-03-16T17:39:18.842Z,66.80
2023-03-16T17:41:47.616Z,66.70
2023-03-16T17:44:16.204Z,68.30
2023-03-16T17:46:46.434Z,70.10
2023-03-16T17:49:16.026Z,68.20
2023-03-16T17:51:44.154Z,67.90
2023-03-16T17:54:12.450Z,69.00
2023-03-16T17:56:41.783Z,69.70
2023-03-16T17:59:16.692Z,69.80
2023-03-16T18:01:47.330Z,70.00
2023-03-16T18:04:18.211Z,70.90
2023-03-16T18:06:48.174Z,72.50
2023-03-16T18:09:16.457Z,72.20
2023-03-16T18:11:47.590Z,71.60
2023-03-16T18:14:24.649Z,71.80
2023-03-16T18:16:55.695Z,72.60
2023-03-16T18:19:25.807Z,72.60
2023-03-16T18:21:54.714Z,71.40
2023-03-16T18:24:26.583Z,72.60
2023-03-16T18:26:55.292Z,75.10
2023-03-16T18:29:24.118Z,74.70
2023-03-16T18:31:55.935Z,73.60
2023-03-16T18:34:25.277Z,74.40
2023-03-16T18:36:55.939Z,75.20
2023-03-16T18:39:24.124Z,74.10
2023-03-16T18:41:52.641Z,73.40
2023-03-16T18:44:23.392Z,73.90
2023-03-16T18:47:02.393Z,74.00
2023-03-16T18:49:34.612Z,73.20
2023-03-16T18:52:02.681Z,74.80
2023-03-16T18:54:32.458Z,76.10
2023-03-16T18:57:00.517Z,75.90
2023-03-16T18:59:29.194Z,75.90
2023-03-16T19:01:59.107Z,75.90
2023-03-16T19:04:29.268Z,75.70
2023-03-16T19:06:58.359Z,75.60
2023-03-16T19:09:28.403Z,75.20
2023-03-16T19:11:56.356Z,78.20
2023-03-16T19:14:28.374Z,79.90
2023-03-16T19:16:58.025Z,76.20
2023-03-16T19:19:27.375Z,75.70
2023-03-16T19:21:58.280Z,77.80
2023-03-16T19:24:28.923Z,78.00
2023-03-16T19:26:57.694Z,78.50
2023-03-16T19:29:31.685Z,78.00
2023-03-16T19:32:01.732Z,77.60
2023-03-16T19:34:30.763Z,77.10
2023-03-16T19:36:58.815Z,79.00
2023-03-16T19:39:27.871Z,79.90
2023-03-16T19:41:58.523Z,78.80
2023-03-16T19:44:28.541Z,78.40
2023-03-16T19:46:59.189Z,79.40
2023-03-16T19:49:29.403Z,80.40
2023-03-16T19:51:57.650Z,79.90
2023-03-16T19:54:27.161Z,79.90
2023-03-16T19:56:57.037Z,81.80
2023-03-16T19:59:32.409Z,82.80
2023-03-16T20:02:00.915Z,81.40
2023-03-16T20:04:31.381Z,80.00
2023-03-16T20:06:59.493Z,81.10
2023-03-16T20:09:27.558Z,82.30
2023-03-16T20:11:55.672Z,82.30
2023-03-16T20:14:30.810Z,81.40
2023-03-16T20:16:59.026Z,81.00
2023-03-16T20:19:27.137Z,80.80
2023-03-16T20:21:56.522Z,80.60
2023-03-16T20:24:24.541Z,80.90
2023-03-16T20:26:54.595Z,81.40
2023-03-16T20:29:28.816Z,83.30
2023-03-16T20:31:57.190Z,85.90
2023-03-16T20:34:27.467Z,85.60
2023-03-16T20:36:57.818Z,84.60
2023-03-16T20:39:25.903Z,84.60
2023-03-16T20:41:54.343Z,82.40
2023-03-16T20:44:23.644Z,82.00
2023-03-16T20:46:52.370Z,85.00
2023-03-16T20:49:38.653Z,86.40
2023-03-16T20:52:16.386Z,86.60
2023-03-16T20:54:44.375Z,86.70
2023-03-16T20:57:17.420Z,86.30
2023-03-16T20:59:47.971Z,85.40
2023-03-16T21:02:28.272Z,86.20
2023-03-16T21:04:57.031Z,88.40
2023-03-16T21:07:27.194Z,88.70
2023-03-16T21:09:55.420Z,88.40
2023-03-16T21:12:25.923Z,87.60
2023-03-16T21:14:53.984Z,87.90
2023-03-16T21:17:26.333Z,87.80
2023-03-16T21:19:54.530Z,86.90
2023-03-16T21:22:27.066Z,87.40
2023-03-16T21:24:55.514Z,88.80
2023-03-16T21:27:27.574Z,86.90
2023-03-16T21:29:56.839Z,87.00
2023-03-16T21:32:27.532Z,87.30
2023-03-16T21:34:57.546Z,88.00
2023-03-16T21:37:28.018Z,87.80
2023-03-16T21:39:56.121Z,88.90
2023-03-16T21:42:24.091Z,90.00
2023-03-16T21:44:52.360Z,90.00
2023-03-16T21:47:24.767Z,89.40
2023-03-16T21:49:53.812Z,88.60
2023-03-16T21:52:24.652Z,89.90
2023-03-16T21:54:54.841Z,90.30
2023-03-16T21:57:23.081Z,90.00
2023-03-16T21:59:51.898Z,89.40
2023-03-16T22:02:22.599Z,89.30
2023-03-16T22:04:51.828Z,88.70
2023-03-16T22:07:23.124Z,88.60
2023-03-16T22:09:51.213Z,89.50
2023-03-16T22:12:20.514Z,90.10
2023-03-16T22:14:48.716Z,89.80
2023-03-16T22:17:21.654Z,90.10
2023-03-16T22:19:49.794Z,90.30
2023-03-16T22:22:18.581Z,90.00
2023-03-16T22:24:48.114Z,89.50
2023-03-16T22:27:21.411Z,88.50
2023-03-16T22:29:51.203Z,88.90
2023-03-16T22:32:21.971Z,90.20
2023-03-16T22:34:51.975Z,89.60
2023-03-16T22:37:23.056Z,89.20
2023-03-16T22:39:51.776Z,89.30
2023-03-16T22:42:28.052Z,89.40
2023-03-16T22:44:57.792Z,89.40
2023-03-16T22:47:28.394Z,90.60
2023-03-16T22:49:56.735Z,91.00
2023-03-16T22:52:30.523Z,90.90
2023-03-16T22:54:59.078Z,90.30
2023-03-16T22:57:27.107Z,90.00
2023-03-16T22:59:55.419Z,89.60
2023-03-16T23:02:27.796Z,89.90
2023-03-16T23:04:55.999Z,90.10
2023-03-16T23:07:24.057Z,90.00
2023-03-16T23:09:52.392Z,90.10
2023-03-16T23:12:22.651Z,90.10
2023-03-16T23:14:50.752Z,90.10
2023-03-16T23:17:20.722Z,89.90
2023-03-16T23:19:50.197Z,90.40
2023-03-16T23:22:18.338Z,90.50
2023-03-16T23:24:46.326Z,90.90
2023-03-16T23:27:18.868Z,91.10
2023-03-16T23:29:47.303Z,91.00
2023-03-16T23:32:16.906Z,90.80
2023-03-16T23:34:45.324Z,90.50
2023-03-16T23:37:14.763Z,90.50
2023-03-16T23:39:42.777Z,90.50
2023-03-16T23:42:11.027Z,91.00
2023-03-16T23:44:39.284Z,91.60
2023-03-16T23:47:07.466Z,91.30
2023-03-16T23:49:39.770Z,90.90
2023-03-16T23:52:07.906Z,91.20
2023-03-16T23:54:37.313Z,91.20
2023-03-16T23:57:05.426Z,91.20
2023-03-16T23:59:33.380Z,91.30
